sensor_id;sensor_type;location;lat;lon;timestamp;pressure;altitude;pressure_sealevel;temperature;humidity
78751;BME280;68070;50.954;11.060;2023-02-28T00:00:42;100320.55;;;-1.96;75.16
78751;BME280;68070;50.954;11.060;2023-02-28T00:03:27;100319.52;;;-1.99;75.58
78751;BME280;68070;50.954;11.060;2023-02-28T00:06:13;100316.02;;;-2.02;75.04
78751;BME280;68070;50.954;11.060;2023-02-28T00:08:57;100313.95;;;-2.07;74.89
78751;BME280;68070;50.954;11.060;2023-02-28T00:11:42;100315.54;;;-2.09;74.26
78751;BME280;68070;50.954;11.060;2023-02-28T00:14:26;100309.92;;;-2.00;74.33
78751;BME280;68070;50.954;11.060;2023-02-28T00:17:11;100309.73;;;-1.97;75.44
78751;BME280;68070;50.954;11.060;2023-02-28T00:19:55;100309.05;;;-1.99;75.94
78751;BME280;68070;50.954;11.060;2023-02-28T00:22:41;100308.20;;;-2.00;75.78
78751;BME280;68070;50.954;11.060;2023-02-28T00:25:25;100307.32;;;-2.00;75.56
78751;BME280;68070;50.954;11.060;2023-02-28T00:28:10;100306.44;;;-2.00;75.23
78751;BME280;68070;50.954;11.060;2023-02-28T00:30:54;100305.04;;;-1.99;74.62
78751;BME280;68070;50.954;11.060;2023-02-28T00:33:40;100306.44;;;-2.00;74.60
78751;BME280;68070;50.954;11.060;2023-02-28T00:36:24;100307.13;;;-2.00;73.94
78751;BME280;68070;50.954;11.060;2023-02-28T00:39:09;100304.48;;;-1.92;73.83
78751;BME280;68070;50.954;11.060;2023-02-28T00:41:55;100301.86;;;-1.89;74.86
78751;BME280;68070;50.954;11.060;2023-02-28T00:44:39;100300.98;;;-1.90;76.15
78751;BME280;68070;50.954;11.060;2023-02-28T00:47:23;100302.23;;;-1.96;75.54
78751;BME280;68070;50.954;11.060;2023-02-28T00:50:09;100302.95;;;-1.98;75.25
78751;BME280;68070;50.954;11.060;2023-02-28T00:52:56;100299.63;;;-2.02;75.11
78751;BME280;68070;50.954;11.060;2023-02-28T00:55:40;100301.20;;;-2.04;77.23
78751;BME280;68070;50.954;11.060;2023-02-28T00:58:24;100302.45;;;-2.10;78.81
78751;BME280;68070;50.954;11.060;2023-02-28T01:01:09;100301.05;;;-2.13;76.22
78751;BME280;68070;50.954;11.060;2023-02-28T01:03:56;100301.06;;;-2.16;76.09
78751;BME280;68070;50.954;11.060;2023-02-28T01:06:41;100299.67;;;-2.17;75.37
78751;BME280;68070;50.954;11.060;2023-02-28T01:09:28;100303.48;;;-2.08;75.18
78751;BME280;68070;50.954;11.060;2023-02-28T01:12:13;100300.15;;;-2.03;75.67
78751;BME280;68070;50.954;11.060;2023-02-28T01:14:58;100301.03;;;-2.01;76.48
78751;BME280;68070;50.954;11.060;2023-02-28T01:17:43;100306.27;;;-2.00;76.50
78751;BME280;68070;50.954;11.060;2023-02-28T01:20:29;100305.22;;;-1.98;76.57
78751;BME280;68070;50.954;11.060;2023-02-28T01:23:13;100300.69;;;-1.99;76.11
78751;BME280;68070;50.954;11.060;2023-02-28T01:26:14;100302.42;;;-2.00;75.82
78751;BME280;68070;50.954;11.060;2023-02-28T01:29:00;100296.48;;;-2.02;75.60
78751;BME280;68070;50.954;11.060;2023-02-28T01:31:44;100297.71;;;-2.05;75.99
78751;BME280;68070;50.954;11.060;2023-02-28T01:34:29;100300.70;;;-2.07;75.85
78751;BME280;68070;50.954;11.060;2023-02-28T01:37:13;100299.12;;;-2.05;75.71
78751;BME280;68070;50.954;11.060;2023-02-28T01:40:02;100297.52;;;-1.95;75.87
78751;BME280;68070;50.954;11.060;2023-02-28T01:42:47;100289.50;;;-1.95;77.33
78751;BME280;68070;50.954;11.060;2023-02-28T01:45:35;100290.53;;;-1.93;77.45
78751;BME280;68070;50.954;11.060;2023-02-28T01:48:24;100291.75;;;-1.93;77.22
78751;BME280;68070;50.954;11.060;2023-02-28T01:51:14;100291.77;;;-1.97;78.00
78751;BME280;68070;50.954;11.060;2023-02-28T01:54:02;100290.72;;;-1.96;76.62
78751;BME280;68070;50.954;11.060;2023-02-28T01:57:13;100294.23;;;-1.98;77.18
78751;BME280;68070;50.954;11.060;2023-02-28T02:00:11;100291.95;;;-2.03;79.26
78751;BME280;68070;50.954;11.060;2023-02-28T02:03:06;100288.48;;;-2.07;77.88
78751;BME280;68070;50.954;11.060;2023-02-28T02:05:53;100286.20;;;-2.03;76.71
78751;BME280;68070;50.954;11.060;2023-02-28T02:08:38;100281.30;;;-1.96;76.45
78751;BME280;68070;50.954;11.060;2023-02-28T02:11:25;100278.14;;;-1.93;77.35
78751;BME280;68070;50.954;11.060;2023-02-28T02:17:22;100278.85;;;-1.96;76.97
78751;BME280;68070;50.954;11.060;2023-02-28T02:20:47;100274.84;;;-1.96;77.43
78751;BME280;68070;50.954;11.060;2023-02-28T02:27:06;100272.58;;;-2.02;77.33
78751;BME280;68070;50.954;11.060;2023-02-28T02:36:25;100264.88;;;-1.93;76.49
78751;BME280;68070;50.954;11.060;2023-02-28T02:39:18;100265.22;;;-1.91;77.09
78751;BME280;68070;50.954;11.060;2023-02-28T02:42:11;100269.25;;;-1.94;77.63
78751;BME280;68070;50.954;11.060;2023-02-28T02:45:02;100270.12;;;-1.93;76.99
78751;BME280;68070;50.954;11.060;2023-02-28T02:47:51;100266.80;;;-1.92;77.40
78751;BME280;68070;50.954;11.060;2023-02-28T02:50:39;100267.48;;;-1.93;76.73
78751;BME280;68070;50.954;11.060;2023-02-28T02:53:30;100270.98;;;-1.94;76.27
78751;BME280;68070;50.954;11.060;2023-02-28T02:56:19;100272.41;;;-1.97;76.12
78751;BME280;68070;50.954;11.060;2023-02-28T02:59:09;100272.20;;;-1.92;76.38
78751;BME280;68070;50.954;11.060;2023-02-28T03:01:59;100271.48;;;-1.90;76.63
78751;BME280;68070;50.954;11.060;2023-02-28T03:04:52;100265.05;;;-1.92;76.83
78751;BME280;68070;50.954;11.060;2023-02-28T03:07:39;100267.85;;;-1.94;76.64
78751;BME280;68070;50.954;11.060;2023-02-28T03:10:38;100263.66;;;-1.95;76.67
78751;BME280;68070;50.954;11.060;2023-02-28T03:29:33;100270.92;;;-2.23;75.33
78751;BME280;68070;50.954;11.060;2023-02-28T03:32:24;100274.58;;;-2.26;76.07
78751;BME280;68070;50.954;11.060;2023-02-28T03:35:14;100271.41;;;-2.15;75.69
78751;BME280;68070;50.954;11.060;2023-02-28T03:41:24;100274.38;;;-2.10;76.41
78751;BME280;68070;50.954;11.060;2023-02-28T03:44:16;100272.10;;;-2.08;76.16
78751;BME280;68070;50.954;11.060;2023-02-28T03:47:12;100272.96;;;-2.07;75.58
78751;BME280;68070;50.954;11.060;2023-02-28T03:53:32;100272.41;;;-2.02;75.11
78751;BME280;68070;50.954;11.060;2023-02-28T03:56:19;100269.41;;;-1.90;75.02
78751;BME280;68070;50.954;11.060;2023-02-28T03:59:14;100268.88;;;-1.88;75.29
78751;BME280;68070;50.954;11.060;2023-02-28T04:02:00;100270.98;;;-1.89;75.38
78751;BME280;68070;50.954;11.060;2023-02-28T04:04:45;100270.98;;;-1.88;74.82
78751;BME280;68070;50.954;11.060;2023-02-28T04:07:32;100273.42;;;-1.88;74.44
78751;BME280;68070;50.954;11.060;2023-02-28T04:10:18;100272.73;;;-1.89;74.37
78751;BME280;68070;50.954;11.060;2023-02-28T04:13:02;100275.86;;;-1.92;74.32
78751;BME280;68070;50.954;11.060;2023-02-28T04:15:49;100276.21;;;-1.90;74.63
78751;BME280;68070;50.954;11.060;2023-02-28T04:18:34;100278.27;;;-1.82;74.92
78751;BME280;68070;50.954;11.060;2023-02-28T04:21:18;100277.55;;;-1.79;74.94
78751;BME280;68070;50.954;11.060;2023-02-28T04:24:09;100276.70;;;-1.82;75.20
78751;BME280;68070;50.954;11.060;2023-02-28T04:26:58;100277.05;;;-1.82;74.54
78751;BME280;68070;50.954;11.060;2023-02-28T04:29:42;100280.02;;;-1.84;74.06
78751;BME280;68070;50.954;11.060;2023-02-28T04:32:28;100285.98;;;-1.86;74.16
78751;BME280;68070;50.954;11.060;2023-02-28T04:35:14;100283.55;;;-1.90;74.99
78751;BME280;68070;50.954;11.060;2023-02-28T04:38:00;100288.09;;;-1.95;74.43
78751;BME280;68070;50.954;11.060;2023-02-28T04:40:44;100288.98;;;-1.99;74.91
78751;BME280;68070;50.954;11.060;2023-02-28T04:43:29;100290.04;;;-2.04;74.98
78751;BME280;68070;50.954;11.060;2023-02-28T04:46:15;100290.03;;;-1.97;74.27
78751;BME280;68070;50.954;11.060;2023-02-28T04:48:59;100290.88;;;-1.94;75.04
78751;BME280;68070;50.954;11.060;2023-02-28T04:51:44;100289.50;;;-1.96;75.13
78751;BME280;68070;50.954;11.060;2023-02-28T04:54:28;100290.04;;;-1.98;75.09
78751;BME280;68070;50.954;11.060;2023-02-28T04:57:13;100287.08;;;-2.02;75.07
78751;BME280;68070;50.954;11.060;2023-02-28T04:59:58;100290.23;;;-2.07;75.17
78751;BME280;68070;50.954;11.060;2023-02-28T05:02:42;100290.96;;;-2.11;75.40
78751;BME280;68070;50.954;11.060;2023-02-28T05:05:27;100286.93;;;-2.15;75.67
78751;BME280;68070;50.954;11.060;2023-02-28T05:08:14;100287.67;;;-2.23;76.37
78751;BME280;68070;50.954;11.060;2023-02-28T05:11:10;100296.04;;;-2.29;76.29
78751;BME280;68070;50.954;11.060;2023-02-28T05:13:57;100291.35;;;-2.36;76.66
78751;BME280;68070;50.954;11.060;2023-02-28T05:16:41;100290.48;;;-2.41;75.78
78751;BME280;68070;50.954;11.060;2023-02-28T05:19:27;100294.67;;;-2.42;74.95
78751;BME280;68070;50.954;11.060;2023-02-28T05:22:14;100293.78;;;-2.38;75.15
78751;BME280;68070;50.954;11.060;2023-02-28T05:25:01;100296.41;;;-2.38;75.66
78751;BME280;68070;50.954;11.060;2023-02-28T05:27:45;100299.55;;;-2.41;76.28
78751;BME280;68070;50.954;11.060;2023-02-28T05:30:30;100304.97;;;-2.44;76.59
78751;BME280;68070;50.954;11.060;2023-02-28T05:33:15;100307.41;;;-2.46;75.85
78751;BME280;68070;50.954;11.060;2023-02-28T05:36:00;100308.45;;;-2.49;75.93
78751;BME280;68070;50.954;11.060;2023-02-28T05:38:47;100314.91;;;-2.54;76.62
78751;BME280;68070;50.954;11.060;2023-02-28T05:41:32;100318.23;;;-2.58;76.43
78751;BME280;68070;50.954;11.060;2023-02-28T05:44:16;100317.54;;;-2.59;76.00
78751;BME280;68070;50.954;11.060;2023-02-28T05:47:01;100319.61;;;-2.55;75.92
78751;BME280;68070;50.954;11.060;2023-02-28T05:49:45;100326.08;;;-2.58;76.06
78751;BME280;68070;50.954;11.060;2023-02-28T05:52:30;100329.02;;;-2.64;76.02
78751;BME280;68070;50.954;11.060;2023-02-28T05:55:14;100327.13;;;-2.70;76.02
78751;BME280;68070;50.954;11.060;2023-02-28T05:57:58;100326.94;;;-2.75;76.06
78751;BME280;68070;50.954;11.060;2023-02-28T06:00:43;100329.73;;;-2.80;76.91
78751;BME280;68070;50.954;11.060;2023-02-28T06:03:28;100333.73;;;-2.86;76.05
78751;BME280;68070;50.954;11.060;2023-02-28T06:06:12;100329.20;;;-2.88;78.06
78751;BME280;68070;50.954;11.060;2023-02-28T06:08:57;100327.98;;;-2.84;76.95
78751;BME280;68070;50.954;11.060;2023-02-28T06:11:42;100329.21;;;-2.82;77.36
78751;BME280;68070;50.954;11.060;2023-02-28T06:14:26;100329.05;;;-2.82;77.49
78751;BME280;68070;50.954;11.060;2023-02-28T06:17:12;100328.86;;;-2.79;77.34
78751;BME280;68070;50.954;11.060;2023-02-28T06:19:58;100328.68;;;-2.76;76.58
78751;BME280;68070;50.954;11.060;2023-02-28T06:22:42;100330.59;;;-2.73;75.93
78751;BME280;68070;50.954;11.060;2023-02-28T06:25:27;100336.19;;;-2.70;75.46
78751;BME280;68070;50.954;11.060;2023-02-28T06:28:12;100337.92;;;-2.59;75.99
78751;BME280;68070;50.954;11.060;2023-02-28T06:30:57;100338.27;;;-2.56;76.57
78751;BME280;68070;50.954;11.060;2023-02-28T06:33:42;100341.59;;;-2.58;76.71
78751;BME280;68070;50.954;11.060;2023-02-28T06:36:26;100350.12;;;-2.55;76.28
78751;BME280;68070;50.954;11.060;2023-02-28T06:39:10;100350.81;;;-2.53;76.03
78751;BME280;68070;50.954;11.060;2023-02-28T06:41:55;100352.20;;;-2.49;75.58
78751;BME280;68070;50.954;11.060;2023-02-28T06:44:39;100360.74;;;-2.43;75.04
78751;BME280;68070;50.954;11.060;2023-02-28T06:47:24;100363.00;;;-2.31;74.90
78751;BME280;68070;50.954;11.060;2023-02-28T06:50:11;100359.14;;;-2.15;75.32
78751;BME280;68070;50.954;11.060;2023-02-28T06:52:58;100361.05;;;-2.06;75.53
78751;BME280;68070;50.954;11.060;2023-02-28T06:55:43;100365.73;;;-1.98;75.00
78751;BME280;68070;50.954;11.060;2023-02-28T06:58:28;100367.98;;;-1.88;74.49
78751;BME280;68070;50.954;11.060;2023-02-28T07:01:13;100370.58;;;-1.81;74.01
78751;BME280;68070;50.954;11.060;2023-02-28T07:03:59;100373.88;;;-1.74;73.86
78751;BME280;68070;50.954;11.060;2023-02-28T07:06:44;100377.34;;;-1.66;73.55
78751;BME280;68070;50.954;11.060;2023-02-28T07:09:28;100379.73;;;-1.54;73.25
78751;BME280;68070;50.954;11.060;2023-02-28T07:12:14;100378.63;;;-1.40;73.64
78751;BME280;68070;50.954;11.060;2023-02-28T07:14:58;100379.99;;;-1.34;72.69
78751;BME280;68070;50.954;11.060;2023-02-28T07:17:43;100380.16;;;-1.30;72.52
78751;BME280;68070;50.954;11.060;2023-02-28T07:20:27;100382.20;;;-1.19;72.47
78751;BME280;68070;50.954;11.060;2023-02-28T07:23:11;100378.48;;;-1.10;71.46
78751;BME280;68070;50.954;11.060;2023-02-28T07:25:56;100379.30;;;-1.01;71.11
78751;BME280;68070;50.954;11.060;2023-02-28T07:28:44;100380.79;;;-0.86;71.43
78751;BME280;68070;50.954;11.060;2023-02-28T07:31:29;100381.38;;;-0.73;70.92
78751;BME280;68070;50.954;11.060;2023-02-28T07:34:13;100383.45;;;-0.67;71.06
78751;BME280;68070;50.954;11.060;2023-02-28T07:36:58;100382.01;;;-0.62;70.51
78751;BME280;68070;50.954;11.060;2023-02-28T07:39:42;100380.40;;;-0.56;70.18
78751;BME280;68070;50.954;11.060;2023-02-28T07:42:27;100380.00;;;-0.51;69.68
78751;BME280;68070;50.954;11.060;2023-02-28T07:45:11;100376.33;;;-0.50;69.49
78751;BME280;68070;50.954;11.060;2023-02-28T07:47:56;100374.14;;;-0.40;69.30
78751;BME280;68070;50.954;11.060;2023-02-28T07:50:40;100379.36;;;-0.17;70.23
78751;BME280;68070;50.954;11.060;2023-02-28T07:53:25;100379.20;;;0.00;69.72
78751;BME280;68070;50.954;11.060;2023-02-28T07:56:10;100378.61;;;0.05;68.08
78751;BME280;68070;50.954;11.060;2023-02-28T07:58:55;100380.05;;;0.35;67.90
78751;BME280;68070;50.954;11.060;2023-02-28T08:01:39;100379.99;;;3.33;62.33
78751;BME280;68070;50.954;11.060;2023-02-28T08:04:24;100384.45;;;6.54;52.89
78751;BME280;68070;50.954;11.060;2023-02-28T08:07:08;100387.08;;;9.11;51.93
78751;BME280;68070;50.954;11.060;2023-02-28T08:09:53;100376.84;;;10.99;47.21
78751;BME280;68070;50.954;11.060;2023-02-28T08:12:38;100380.14;;;12.26;42.16
78751;BME280;68070;50.954;11.060;2023-02-28T08:15:22;100387.21;;;13.56;38.06
78751;BME280;68070;50.954;11.060;2023-02-28T08:18:07;100384.08;;;14.50;34.94
78751;BME280;68070;50.954;11.060;2023-02-28T08:20:51;100387.98;;;14.90;31.61
78751;BME280;68070;50.954;11.060;2023-02-28T08:23:35;100384.50;;;15.63;31.47
78751;BME280;68070;50.954;11.060;2023-02-28T08:26:21;100382.96;;;16.54;30.79
78751;BME280;68070;50.954;11.060;2023-02-28T08:29:05;100391.14;;;17.24;28.91
78751;BME280;68070;50.954;11.060;2023-02-28T08:31:50;100391.96;;;17.27;27.21
78751;BME280;68070;50.954;11.060;2023-02-28T08:34:35;100393.54;;;17.00;24.76
78751;BME280;68070;50.954;11.060;2023-02-28T08:37:21;100394.55;;;16.58;24.53
78751;BME280;68070;50.954;11.060;2023-02-28T08:40:05;100398.98;;;17.15;24.70
78751;BME280;68070;50.954;11.060;2023-02-28T08:42:52;100398.59;;;16.17;24.02
78751;BME280;68070;50.954;11.060;2023-02-28T08:45:36;100398.27;;;16.93;24.61
78751;BME280;68070;50.954;11.060;2023-02-28T08:48:22;100400.65;;;16.57;23.35
78751;BME280;68070;50.954;11.060;2023-02-28T08:51:08;100395.10;;;16.55;23.02
78751;BME280;68070;50.954;11.060;2023-02-28T08:53:54;100399.31;;;16.93;23.20
78751;BME280;68070;50.954;11.060;2023-02-28T08:56:38;100400.33;;;17.63;22.90
78751;BME280;68070;50.954;11.060;2023-02-28T08:59:23;100403.13;;;17.84;21.41
78751;BME280;68070;50.954;11.060;2023-02-28T09:02:10;100409.00;;;17.98;21.83
78751;BME280;68070;50.954;11.060;2023-02-28T09:04:56;100404.55;;;17.95;21.37
78751;BME280;68070;50.954;11.060;2023-02-28T09:07:40;100409.95;;;17.84;20.39
78751;BME280;68070;50.954;11.060;2023-02-28T09:10:25;100405.54;;;17.48;20.92
78751;BME280;68070;50.954;11.060;2023-02-28T09:13:09;100406.23;;;17.59;21.07
78751;BME280;68070;50.954;11.060;2023-02-28T09:15:54;100404.22;;;18.27;20.94
78751;BME280;68070;50.954;11.060;2023-02-28T09:18:42;100404.01;;;18.53;19.95
78751;BME280;68070;50.954;11.060;2023-02-28T09:21:27;100406.30;;;18.21;19.90
78751;BME280;68070;50.954;11.060;2023-02-28T09:24:12;100404.75;;;17.85;19.38
78751;BME280;68070;50.954;11.060;2023-02-28T09:26:59;100409.11;;;17.81;19.20
78751;BME280;68070;50.954;11.060;2023-02-28T09:29:43;100405.93;;;18.07;19.04
78751;BME280;68070;50.954;11.060;2023-02-28T09:32:28;100398.55;;;17.69;19.19
78751;BME280;68070;50.954;11.060;2023-02-28T09:35:12;100403.77;;;17.38;19.59
78751;BME280;68070;50.954;11.060;2023-02-28T09:38:01;100403.55;;;15.76;20.82
78751;BME280;68070;50.954;11.060;2023-02-28T09:40:50;100397.55;;;15.74;21.05
78751;BME280;68070;50.954;11.060;2023-02-28T09:43:37;100400.81;;;14.88;21.36
78751;BME280;68070;50.954;11.060;2023-02-28T09:46:27;100395.89;;;15.73;20.35
78751;BME280;68070;50.954;11.060;2023-02-28T09:49:13;100399.18;;;15.99;19.81
78751;BME280;68070;50.954;11.060;2023-02-28T09:52:00;100396.44;;;16.56;19.94
78751;BME280;68070;50.954;11.060;2023-02-28T09:54:45;100408.34;;;16.25;18.98
78751;BME280;68070;50.954;11.060;2023-02-28T09:57:36;100401.32;;;15.63;19.62
78751;BME280;68070;50.954;11.060;2023-02-28T10:00:24;100401.40;;;15.77;19.53
78751;BME280;68070;50.954;11.060;2023-02-28T10:06:33;100400.70;;;16.45;18.86
78751;BME280;68070;50.954;11.060;2023-02-28T10:09:22;100406.61;;;13.42;21.33
78751;BME280;68070;50.954;11.060;2023-02-28T10:12:08;100403.30;;;10.13;24.78
78751;BME280;68070;50.954;11.060;2023-02-28T10:14:55;100401.55;;;8.55;27.08
78751;BME280;68070;50.954;11.060;2023-02-28T10:17:43;100398.46;;;8.49;27.67
78751;BME280;68070;50.954;11.060;2023-02-28T10:20:31;100388.50;;;7.78;28.75
78751;BME280;68070;50.954;11.060;2023-02-28T10:23:25;100395.48;;;6.78;30.25
78751;BME280;68070;50.954;11.060;2023-02-28T10:26:12;100390.16;;;7.33;29.27
78751;BME280;68070;50.954;11.060;2023-02-28T10:28:56;100397.25;;;6.68;30.36
78751;BME280;68070;50.954;11.060;2023-02-28T10:31:42;100395.90;;;8.17;28.60
78751;BME280;68070;50.954;11.060;2023-02-28T10:34:27;100392.67;;;9.69;26.69
78751;BME280;68070;50.954;11.060;2023-02-28T10:37:11;100391.95;;;8.40;28.54
78751;BME280;68070;50.954;11.060;2023-02-28T10:39:57;100394.31;;;8.67;28.44
78751;BME280;68070;50.954;11.060;2023-02-28T10:42:42;100391.09;;;10.11;26.74
78751;BME280;68070;50.954;11.060;2023-02-28T10:45:38;100391.11;;;12.00;24.36
78751;BME280;68070;50.954;11.060;2023-02-28T10:48:30;100399.36;;;13.06;23.13
78751;BME280;68070;50.954;11.060;2023-02-28T10:51:16;100394.39;;;13.59;22.39
78751;BME280;68070;50.954;11.060;2023-02-28T10:54:03;100384.11;;;13.95;21.70
78751;BME280;68070;50.954;11.060;2023-02-28T10:59:53;100389.59;;;12.44;22.76
78751;BME280;68070;50.954;11.060;2023-02-28T11:02:49;100388.02;;;12.84;22.66
78751;BME280;68070;50.954;11.060;2023-02-28T11:05:34;100385.17;;;11.96;23.43
78751;BME280;68070;50.954;11.060;2023-02-28T11:08:19;100383.46;;;12.15;23.53
78751;BME280;68070;50.954;11.060;2023-02-28T11:11:04;100381.39;;;11.59;24.40
78751;BME280;68070;50.954;11.060;2023-02-28T11:13:51;100381.52;;;10.56;25.29
78751;BME280;68070;50.954;11.060;2023-02-28T11:16:36;100374.55;;;10.36;25.67
78751;BME280;68070;50.954;11.060;2023-02-28T11:19:25;100372.83;;;10.28;25.91
78751;BME280;68070;50.954;11.060;2023-02-28T11:22:15;100380.00;;;10.51;25.58
78751;BME280;68070;50.954;11.060;2023-02-28T11:25:02;100375.09;;;9.24;26.83
78751;BME280;68070;50.954;11.060;2023-02-28T11:27:57;100369.40;;;8.68;27.89
78751;BME280;68070;50.954;11.060;2023-02-28T11:30:44;100372.35;;;9.88;26.41
78751;BME280;68070;50.954;11.060;2023-02-28T11:33:43;100372.95;;;9.22;27.26
78751;BME280;68070;50.954;11.060;2023-02-28T11:36:30;100366.03;;;7.82;29.21
78751;BME280;68070;50.954;11.060;2023-02-28T11:39:16;100361.27;;;8.28;29.17
78751;BME280;68070;50.954;11.060;2023-02-28T11:50:59;100350.81;;;9.96;27.46
78751;BME280;68070;50.954;11.060;2023-02-28T11:56:54;100349.46;;;9.08;28.26
78751;BME280;68070;50.954;11.060;2023-02-28T12:02:34;100346.81;;;9.22;28.18
78751;BME280;68070;50.954;11.060;2023-02-28T12:05:36;100345.68;;;7.65;30.65
78751;BME280;68070;50.954;11.060;2023-02-28T12:08:34;100345.50;;;6.65;32.34
78751;BME280;68070;50.954;11.060;2023-02-28T12:20:21;100332.64;;;4.64;36.57
78751;BME280;68070;50.954;11.060;2023-02-28T12:26:23;100328.54;;;4.22;38.21
78751;BME280;68070;50.954;11.060;2023-02-28T12:32:20;100324.02;;;3.94;38.33
78751;BME280;68070;50.954;11.060;2023-02-28T12:40:45;100321.99;;;3.50;39.83
78751;BME280;68070;50.954;11.060;2023-02-28T12:43:38;100310.77;;;3.49;39.94
78751;BME280;68070;50.954;11.060;2023-02-28T12:46:43;100310.05;;;3.49;40.23
78751;BME280;68070;50.954;11.060;2023-02-28T12:49:37;100308.98;;;3.43;40.66
78751;BME280;68070;50.954;11.060;2023-02-28T12:52:31;100304.11;;;3.55;40.93
78751;BME280;68070;50.954;11.060;2023-02-28T12:55:41;100305.73;;;3.61;41.44
78751;BME280;68070;50.954;11.060;2023-02-28T12:58:46;100296.81;;;3.64;41.39
78751;BME280;68070;50.954;11.060;2023-02-28T13:01:42;100302.30;;;3.56;41.56
78751;BME280;68070;50.954;11.060;2023-02-28T13:10:48;100294.38;;;3.70;41.42
78751;BME280;68070;50.954;11.060;2023-02-28T13:13:44;100294.70;;;3.91;41.76
78751;BME280;68070;50.954;11.060;2023-02-28T13:16:53;100301.38;;;3.98;41.82
78751;BME280;68070;50.954;11.060;2023-02-28T13:22:42;100301.14;;;4.25;42.11
78751;BME280;68070;50.954;11.060;2023-02-28T13:37:43;100294.20;;;4.15;42.97
78751;BME280;68070;50.954;11.060;2023-02-28T13:40:32;100288.95;;;4.26;42.38
78751;BME280;68070;50.954;11.060;2023-02-28T13:43:20;100284.52;;;4.27;42.33
78751;BME280;68070;50.954;11.060;2023-02-28T13:46:24;100292.09;;;4.22;42.08
78751;BME280;68070;50.954;11.060;2023-02-28T13:52:23;100292.23;;;4.23;42.39
78751;BME280;68070;50.954;11.060;2023-02-28T13:55:19;100288.93;;;4.27;42.46
78751;BME280;68070;50.954;11.060;2023-02-28T14:07:48;100285.95;;;3.95;42.14
78751;BME280;68070;50.954;11.060;2023-02-28T14:10:39;100281.15;;;3.70;42.86
78751;BME280;68070;50.954;11.060;2023-02-28T14:13:44;100276.05;;;3.84;43.33
78751;BME280;68070;50.954;11.060;2023-02-28T14:16:45;100271.95;;;3.98;42.30
78751;BME280;68070;50.954;11.060;2023-02-28T14:19:31;100269.56;;;3.89;42.54
78751;BME280;68070;50.954;11.060;2023-02-28T14:25:59;100271.04;;;3.67;43.08
78751;BME280;68070;50.954;11.060;2023-02-28T14:32:02;100273.05;;;3.58;43.36
78751;BME280;68070;50.954;11.060;2023-02-28T14:38:04;100272.38;;;3.70;43.64
78751;BME280;68070;50.954;11.060;2023-02-28T14:40:53;100267.13;;;3.82;43.45
78751;BME280;68070;50.954;11.060;2023-02-28T14:43:53;100264.77;;;3.84;43.54
78751;BME280;68070;50.954;11.060;2023-02-28T14:46:39;100265.98;;;3.65;43.70
78751;BME280;68070;50.954;11.060;2023-02-28T14:49:28;100267.73;;;3.52;43.93
78751;BME280;68070;50.954;11.060;2023-02-28T14:52:17;100264.02;;;3.60;44.04
78751;BME280;68070;50.954;11.060;2023-02-28T14:55:06;100262.54;;;3.63;43.82
78751;BME280;68070;50.954;11.060;2023-02-28T14:58:04;100267.07;;;3.64;43.77
78751;BME280;68070;50.954;11.060;2023-02-28T15:00:52;100264.84;;;3.56;44.25
78751;BME280;68070;50.954;11.060;2023-02-28T15:03:39;100262.55;;;3.48;44.38
78751;BME280;68070;50.954;11.060;2023-02-28T15:06:29;100262.35;;;3.49;44.49
78751;BME280;68070;50.954;11.060;2023-02-28T15:09:16;100260.40;;;3.43;44.86
78751;BME280;68070;50.954;11.060;2023-02-28T15:12:01;100259.63;;;3.46;44.53
78751;BME280;68070;50.954;11.060;2023-02-28T15:14:46;100254.21;;;3.44;44.74
78751;BME280;68070;50.954;11.060;2023-02-28T15:17:31;100254.55;;;3.45;44.70
78751;BME280;68070;50.954;11.060;2023-02-28T15:20:16;100254.15;;;3.40;44.61
78751;BME280;68070;50.954;11.060;2023-02-28T15:23:03;100257.84;;;3.26;45.21
78751;BME280;68070;50.954;11.060;2023-02-28T15:25:48;100256.35;;;3.29;45.10
78751;BME280;68070;50.954;11.060;2023-02-28T15:28:34;100253.14;;;3.31;45.18
78751;BME280;68070;50.954;11.060;2023-02-28T15:31:26;100256.38;;;3.29;45.83
78751;BME280;68070;50.954;11.060;2023-02-28T15:37:39;100259.86;;;3.15;45.98
78751;BME280;68070;50.954;11.060;2023-02-28T15:40:31;100263.42;;;3.06;46.53
78751;BME280;68070;50.954;11.060;2023-02-28T15:43:18;100261.46;;;3.08;46.54
78751;BME280;68070;50.954;11.060;2023-02-28T15:46:08;100264.55;;;3.04;46.33
78751;BME280;68070;50.954;11.060;2023-02-28T15:48:55;100263.48;;;2.97;46.53
78751;BME280;68070;50.954;11.060;2023-02-28T15:51:40;100267.04;;;2.80;46.73
78751;BME280;68070;50.954;11.060;2023-02-28T15:54:34;100262.61;;;2.75;47.01
78751;BME280;68070;50.954;11.060;2023-02-28T15:57:24;100264.31;;;2.69;47.21
78751;BME280;68070;50.954;11.060;2023-02-28T16:00:16;100260.10;;;2.68;47.22
78751;BME280;68070;50.954;11.060;2023-02-28T16:03:01;100261.36;;;2.67;47.34
78751;BME280;68070;50.954;11.060;2023-02-28T16:05:45;100262.13;;;2.65;47.43
78751;BME280;68070;50.954;11.060;2023-02-28T16:08:29;100266.66;;;2.58;47.86
78751;BME280;68070;50.954;11.060;2023-02-28T16:11:14;100264.68;;;2.52;48.23
78751;BME280;68070;50.954;11.060;2023-02-28T16:13:58;100265.48;;;2.48;48.51
78751;BME280;68070;50.954;11.060;2023-02-28T16:16:45;100262.44;;;2.34;49.28
78751;BME280;68070;50.954;11.060;2023-02-28T16:19:29;100262.46;;;2.24;49.61
78751;BME280;68070;50.954;11.060;2023-02-28T16:22:15;100261.39;;;2.08;49.96
78751;BME280;68070;50.954;11.060;2023-02-28T16:25:01;100264.14;;;1.94;50.75
78751;BME280;68070;50.954;11.060;2023-02-28T16:27:50;100265.05;;;1.75;50.94
78751;BME280;68070;50.954;11.060;2023-02-28T16:30:38;100268.34;;;1.57;50.95
78751;BME280;68070;50.954;11.060;2023-02-28T16:33:22;100271.63;;;1.40;51.32